Time;durP1;ratioP1;P1;durP2;ratioP2;P2;SDS_P1;SDS_P2;PMS_P1;PMS_P2;Temp;Humidity;BMP_temperature;BMP_pressure;BME280_temperature;BME280_humidity;BME280_pressure;Samples;Min_cycle;Max_cycle;Signal;HPM_P1;HPM_P2
2023/08/31 01:12:04;1151930.00;3.84;2003.55;77471.00;0.26;134.67;;;;;19.30;3.10;;;;;;2270645;61;1946;-88
2023/08/31 01:17:03;1032392.00;3.44;1789.93;77308.00;0.26;134.39;;;;;19.10;4.40;;;;;;2266727;61;1292;-89
2023/08/31 02:01:53;914186.00;3.05;1581.05;79377.00;0.26;137.96;;;;;19.60;2.40;;;;;;2262631;61;1321;-90
2023/08/31 02:04:20;491132.00;1.64;846.56;141527.00;0.47;245.20;;;;;20.00;2.20;;;;;;2260871;61;1072;-89
2023/08/31 02:06:47;325162.00;1.08;561.17;75364.00;0.25;131.03;;;;;20.00;1.70;;;;;;2260851;61;1150;-89
2023/08/31 03:44:04;447657.00;1.49;771.75;0.00;0.00;0.62;;;;;19.90;1.00;;;;;;2271352;61;955;-89
2023/08/31 05:29:26;1771830.00;5.91;3165.86;150686.00;0.50;260.99;;;;;21.10;1.00;;;;;;2263230;61;956;-90
2023/08/31 06:14:47;1207754.00;4.03;2104.25;49917.00;0.17;87.04;;;;;21.00;1.00;;;;;;2263589;61;960;-91
2023/08/31 07:02:24;1290381.00;4.30;2254.51;0.00;0.00;0.62;;;;;22.20;1.00;;;;;;2313739;56;3638;-88
2023/08/31 07:04:52;842804.00;2.81;1455.88;127540.00;0.43;221.09;;;;;22.60;1.00;;;;;;2310214;41;3746;-86
2023/08/31 07:07:19;470702.00;1.57;811.40;76017.00;0.25;132.16;;;;;22.50;1.00;;;;;;2276640;55;3757;-87
2023/08/31 07:09:48;465683.00;1.55;802.76;39384.00;0.13;68.82;;;;;22.00;1.00;;;;;;2308831;40;3569;-87
2023/08/31 07:14:47;1818446.00;6.06;3257.95;93490.00;0.31;162.33;;;;;21.90;1.00;;;;;;2280131;56;3668;-88
2023/08/31 07:17:18;758261.00;2.53;1308.42;199174.00;0.66;344.50;;;;;21.70;1.00;;;;;;2285016;55;3732;-91
2023/08/31 07:19:47;491453.00;1.64;847.11;73294.00;0.24;127.45;;;;;21.80;1.00;;;;;;2291719;55;3761;-87
2023/08/31 07:24:47;1595776.00;5.32;2824.67;68324.00;0.23;118.86;;;;;22.80;1.00;;;;;;2266634;61;1417;-87
2023/08/31 07:27:15;613964.00;2.05;1058.34;76953.00;0.26;133.77;;;;;23.50;1.00;;;;;;2271772;55;3767;-85
2023/08/31 07:29:42;692064.00;2.31;1193.48;73418.00;0.24;127.67;;;;;23.60;1.00;;;;;;2295546;40;3647;-88
2023/08/31 07:37:21;729632.00;2.43;1258.66;57483.00;0.19;100.13;;;;;23.90;1.00;;;;;;2000875;41;2558;-87
2023/08/31 07:45:20;1495935.00;4.99;2635.47;51361.00;0.17;89.54;;;;;22.90;1.00;;;;;;2450992;39;3730;-85
2023/08/31 07:50:29;264823.00;0.88;457.44;0.00;0.00;0.62;;;;;23.10;1.00;;;;;;2270662;56;2288;-89
2023/08/31 07:55:29;1323446.00;4.41;2315.08;0.00;0.00;0.62;;;;;23.50;1.00;;;;;;2351999;40;3625;-88
2023/08/31 08:00:33;1985274.00;6.62;3594.13;0.00;0.00;0.62;;;;;23.80;1.00;;;;;;2279368;56;3619;-87
2023/08/31 08:03:01;474052.00;1.58;817.16;0.00;0.00;0.62;;;;;24.00;1.00;;;;;;2344516;40;3631;-90
2023/08/31 08:08:04;1108744.00;3.70;1926.07;0.00;0.00;0.62;;;;;24.80;1.00;;;;;;2273320;61;1383;-87
2023/08/31 08:10:31;230868.00;0.77;399.04;34579.00;0.12;60.51;;;;;24.70;1.00;;;;;;2271913;61;1510;-86
2023/08/31 08:12:58;226453.00;0.75;391.45;0.00;0.00;0.62;;;;;25.70;1.00;;;;;;2271993;61;1526;-87
2023/08/31 08:15:25;219480.00;0.73;379.45;31345.00;0.10;54.91;;;;;26.70;1.00;;;;;;2272053;61;1244;-87
2023/08/31 08:17:54;240597.00;0.80;415.78;0.00;0.00;0.62;;;;;26.40;1.00;;;;;;2272083;61;1050;-86
2023/08/31 08:20:21;24962.00;0.08;43.86;0.00;0.00;0.62;;;;;26.00;1.00;;;;;;2272029;61;1105;-87
2023/08/31 08:22:51;293663.00;0.98;507.03;0.00;0.00;0.62;;;;;25.30;1.00;;;;;;2272009;61;1348;-87
2023/08/31 08:25:19;136246.00;0.45;236.10;0.00;0.00;0.62;;;;;24.90;1.00;;;;;;2271912;61;1940;-86
2023/08/31 08:27:45;212158.00;0.71;366.85;34824.00;0.12;60.93;;;;;24.90;1.00;;;;;;2271971;61;1728;-86
2023/08/31 08:30:13;107604.00;0.36;186.70;0.00;0.00;0.62;;;;;25.30;1.00;;;;;;2272015;61;1544;-88
2023/08/31 08:32:39;185615.00;0.62;321.16;0.00;0.00;0.62;;;;;25.60;1.00;;;;;;2271949;61;1535;-87
2023/08/31 08:35:08;176768.00;0.59;305.92;0.00;0.00;0.62;;;;;25.90;1.00;;;;;;2272064;61;1472;-86
2023/08/31 08:37:35;182794.00;0.61;316.30;0.00;0.00;0.62;;;;;25.90;1.00;;;;;;2272099;61;1067;-88
2023/08/31 08:40:04;0.00;0.00;0.62;0.00;0.00;0.62;;;;;25.70;1.00;;;;;;2272037;61;1090;-87
2023/08/31 08:42:33;624726.00;2.08;1076.93;0.00;0.00;0.62;;;;;25.20;1.00;;;;;;2302691;56;3748;-87
2023/08/31 08:45:03;168976.00;0.56;292.50;0.00;0.00;0.62;;;;;24.10;1.00;;;;;;2271978;61;2007;-86
2023/08/31 08:47:32;505150.00;1.68;870.69;0.00;0.00;0.62;;;;;23.70;1.00;;;;;;2298270;56;3717;-88
2023/08/31 08:50:00;156503.00;0.52;271.01;0.00;0.00;0.62;;;;;23.60;1.00;;;;;;2277783;55;3828;-87
2023/08/31 08:52:29;197479.00;0.66;341.58;0.00;0.00;0.62;;;;;23.70;1.00;;;;;;2272624;61;1441;-88
2023/08/31 08:54:58;271404.00;0.90;468.76;67181.00;0.22;116.89;;;;;24.30;1.00;;;;;;2270561;61;1013;-86
2023/08/31 08:57:25;439325.00;1.46;757.42;0.00;0.00;0.62;;;;;24.70;1.00;;;;;;2280369;56;3746;-84
2023/08/31 08:59:52;243450.00;0.81;420.69;0.00;0.00;0.62;;;;;24.70;1.00;;;;;;2273139;61;1555;-87
2023/08/31 09:02:19;190446.00;0.63;329.48;49529.00;0.17;86.37;;;;;24.60;1.00;;;;;;2269909;61;1411;-89
2023/08/31 09:04:46;252658.00;0.84;436.52;0.00;0.00;0.62;;;;;24.10;1.00;;;;;;2269130;61;1916;-88
2023/08/31 09:07:14;212364.00;0.71;367.20;0.00;0.00;0.62;;;;;23.80;1.00;;;;;;2279526;40;3645;-88
2023/08/31 09:10:01;248676.00;0.83;429.67;0.00;0.00;0.62;;;;;23.40;1.00;;;;;;2268931;61;1762;-87
2023/08/31 09:15:02;1097642.00;3.66;1906.21;0.00;0.00;0.62;;;;;23.80;1.00;;;;;;2276525;40;3511;-86
2023/08/31 09:17:44;492619.00;1.64;849.12;0.00;0.00;0.62;;;;;24.00;1.00;;;;;;2279877;56;3745;-87
2023/08/31 09:20:11;144360.00;0.48;250.09;0.00;0.00;0.62;;;;;23.70;1.00;;;;;;2273032;61;1582;-88
2023/08/31 09:22:43;234963.00;0.78;406.09;0.00;0.00;0.62;;;;;23.70;1.00;;;;;;2269521;61;1715;-87
2023/08/31 09:25:15;159240.00;0.53;275.73;0.00;0.00;0.62;;;;;23.40;1.00;;;;;;2269042;61;1935;-86
2023/08/31 09:27:44;260308.00;0.87;449.68;0.00;0.00;0.62;;;;;22.40;1.00;;;;;;2269215;61;1042;-87
2023/08/31 09:30:13;130237.00;0.43;225.74;0.00;0.00;0.62;;;;;21.80;1.00;;;;;;2268915;61;1192;-87
2023/08/31 09:32:41;219539.00;0.73;379.55;0.00;0.00;0.62;;;;;22.00;1.00;;;;;;2268962;61;1722;-87
2023/08/31 09:35:10;19390.00;0.06;34.21;0.00;0.00;0.62;;;;;21.90;1.00;;;;;;2276432;40;3615;-88
2023/08/31 09:37:38;194758.00;0.65;336.90;0.00;0.00;0.62;;;;;21.90;1.00;;;;;;2272832;61;1802;-88
2023/08/31 09:40:07;438407.00;1.46;755.84;38326.00;0.13;66.99;;;;;22.50;1.00;;;;;;2292791;56;3747;-88
2023/08/31 09:42:39;286639.00;0.96;494.95;3815.00;0.01;7.23;;;;;23.30;1.00;;;;;;2278457;55;3825;-87
2023/08/31 09:45:07;251896.00;0.84;435.21;18994.00;0.06;33.53;;;;;23.50;1.00;;;;;;2273065;61;1992;-87
2023/08/31 09:50:09;1327215.00;4.42;2322.00;0.00;0.00;0.62;;;;;23.30;1.00;;;;;;2271387;61;1343;-87
2023/08/31 09:52:38;261019.00;0.87;450.90;0.00;0.00;0.62;;;;;23.70;1.00;;;;;;2302833;40;3690;-87
2023/08/31 09:55:07;777550.00;2.59;1342.00;17509.00;0.06;30.96;;;;;23.80;1.00;;;;;;2316591;56;3768;-87
2023/08/31 09:57:35;551602.00;1.84;950.72;64844.00;0.22;112.85;;;;;23.90;1.00;;;;;;2293318;40;3582;-87
2023/08/31 10:02:39;491436.00;1.64;847.08;70263.00;0.23;122.21;;;;;23.90;1.00;;;;;;2272429;56;1856;-87
2023/08/31 10:05:08;519601.00;1.73;895.58;170390.00;0.57;294.94;;;;;23.60;1.00;;;;;;2280722;40;3432;-87
2023/08/31 10:07:36;374896.00;1.25;646.65;72433.00;0.24;125.96;;;;;23.50;1.00;;;;;;2280436;40;3591;-87
2023/08/31 10:12:33;1234251.00;4.11;2152.27;0.00;0.00;0.62;;;;;23.50;1.00;;;;;;2282555;55;3727;-87
2023/08/31 10:15:01;165336.00;0.55;286.23;0.00;0.00;0.62;;;;;23.90;1.00;;;;;;2280505;40;3758;-86
2023/08/31 10:17:29;194887.00;0.65;337.12;0.00;0.00;0.62;;;;;23.50;1.00;;;;;;2272728;61;1711;-87
2023/08/31 10:19:59;202639.00;0.68;350.47;20401.00;0.07;35.96;;;;;22.90;1.00;;;;;;2272824;61;1682;-86
2023/08/31 10:22:26;163440.00;0.54;282.97;0.00;0.00;0.62;;;;;22.70;1.00;;;;;;2269404;61;1704;-86
2023/08/31 10:25:00;248474.00;0.83;429.33;56661.00;0.19;98.70;;;;;23.10;1.00;;;;;;2268799;61;1915;-86
2023/08/31 10:27:28;446645.00;1.49;770.01;45060.00;0.15;78.64;;;;;23.40;1.00;;;;;;2269022;61;1323;-86
2023/08/31 10:29:55;175460.00;0.58;303.67;35293.00;0.12;61.74;;;;;23.20;1.00;;;;;;2268622;61;1607;-88
2023/08/31 10:35:09;957901.00;3.19;1658.05;0.00;0.00;0.62;;;;;23.30;1.00;;;;;;2266802;61;1234;-87
2023/08/31 10:37:36;352736.00;1.18;608.56;66700.00;0.22;116.06;;;;;22.80;1.00;;;;;;2264816;61;1636;-88
2023/08/31 10:40:11;362150.00;1.21;624.74;106511.00;0.36;184.81;;;;;22.60;1.00;;;;;;2264761;61;998;-87
2023/08/31 10:42:47;664917.00;2.22;1146.45;13568.00;0.05;24.13;;;;;22.70;1.00;;;;;;2320704;40;3752;-88
2023/08/31 10:45:14;28642.00;0.10;50.23;0.00;0.00;0.62;;;;;22.90;1.00;;;;;;2273027;61;1915;-86
2023/08/31 10:47:42;255558.00;0.85;441.51;0.00;0.00;0.62;;;;;22.60;1.00;;;;;;2273053;61;1028;-88
2023/08/31 10:55:13;967907.00;3.23;1675.71;0.00;0.00;0.62;;;;;23.50;1.00;;;;;;2266494;61;1421;-86
2023/08/31 10:57:42;191019.00;0.64;330.46;41705.00;0.14;72.84;;;;;24.00;1.00;;;;;;2264754;61;1122;-86
2023/08/31 11:00:11;123241.00;0.41;213.67;0.00;0.00;0.62;;;;;23.90;1.00;;;;;;2264855;61;977;-86
2023/08/31 11:02:39;188552.00;0.63;326.22;0.00;0.00;0.62;;;;;23.40;1.00;;;;;;2264650;61;1750;-86
2023/08/31 11:05:11;207162.00;0.69;358.25;0.00;0.00;0.62;;;;;23.00;1.00;;;;;;2275656;40;3644;-86
2023/08/31 11:07:40;628298.00;2.09;1083.11;84442.00;0.28;146.71;;;;;23.40;1.00;;;;;;2335284;40;3594;-84
2023/08/31 11:10:17;113198.00;0.38;196.35;0.00;0.00;0.62;;;;;23.60;1.00;;;;;;2273538;61;1758;-88
2023/08/31 11:12:47;352137.00;1.17;607.53;13550.00;0.05;24.10;;;;;23.90;1.00;;;;;;2269217;61;1377;-88
2023/08/31 11:15:15;280979.00;0.94;485.22;0.00;0.00;0.62;;;;;24.30;1.00;;;;;;2268723;61;1649;-86
2023/08/31 11:17:43;480392.00;1.60;828.07;60203.00;0.20;104.83;;;;;24.60;1.00;;;;;;2268673;61;1052;-86
2023/08/31 11:20:14;1007250.00;3.36;1745.32;1406.00;0.00;3.06;;;;;24.50;1.00;;;;;;2281883;56;3730;-87
2023/08/31 11:25:13;1489263.00;4.96;2622.93;13336.00;0.04;23.73;;;;;24.60;1.00;;;;;;2319300;40;3662;-88
2023/08/31 11:32:47;1598206.00;5.33;2829.31;0.00;0.00;0.62;;;;;24.40;1.00;;;;;;2273985;55;3751;-86
2023/08/31 11:35:15;238404.00;0.79;412.01;0.00;0.00;0.62;;;;;24.10;1.00;;;;;;2290166;55;3825;-86
2023/08/31 11:37:44;748735.00;2.50;1291.86;0.00;0.00;0.62;;;;;24.30;1.00;;;;;;2305476;56;4203;-87
2023/08/31 11:40:14;339862.00;1.13;586.44;1780.00;0.01;3.71;;;;;23.80;1.00;;;;;;2276862;55;3760;-89
2023/08/31 11:42:42;208628.00;0.70;360.77;0.00;0.00;0.62;;;;;24.00;1.00;;;;;;2268884;61;1757;-86
2023/08/31 11:45:12;598077.00;1.99;1030.90;81039.00;0.27;140.83;;;;;24.10;1.00;;;;;;1924227;41;3860;-87
2023/08/31 11:47:40;75476.00;0.25;131.22;0.00;0.00;0.62;;;;;24.10;1.00;;;;;;2272591;61;965;-87
2023/08/31 11:50:10;332511.00;1.11;573.80;117186.00;0.39;203.23;;;;;23.80;1.00;;;;;;2272552;61;1068;-88
2023/08/31 11:55:13;1602138.00;5.34;2836.83;55318.00;0.18;96.38;;;;;23.70;1.00;;;;;;2297056;56;3581;-86
2023/08/31 11:57:40;153755.00;0.51;266.28;0.00;0.00;0.62;;;;;24.10;1.00;;;;;;2272623;61;1023;-87
2023/08/31 12:00:10;270538.00;0.90;467.27;72292.00;0.24;125.72;;;;;24.30;1.00;;;;;;2274318;55;3726;-87
2023/08/31 12:07:58;269132.00;0.90;464.85;6132.00;0.02;11.25;;;;;24.20;1.00;;;;;;2348385;55;3688;-87
2023/08/31 12:10:27;286350.00;0.95;494.45;0.00;0.00;0.62;;;;;24.40;1.00;;;;;;2355194;40;3687;-85
2023/08/31 12:15:32;259798.00;0.87;448.80;0.00;0.00;0.62;;;;;24.80;1.00;;;;;;2287512;56;1798;-88
2023/08/31 12:18:07;58017.00;0.19;101.05;0.00;0.00;0.62;;;;;24.80;1.00;;;;;;2296365;55;3790;-87
2023/08/31 12:20:40;266559.00;0.89;460.43;52851.00;0.18;92.12;;;;;25.10;1.00;;;;;;2305754;40;3663;-87
2023/08/31 12:23:10;170268.00;0.57;294.73;0.00;0.00;0.62;;;;;25.00;1.00;;;;;;2364581;40;3578;-86
2023/08/31 12:25:37;494926.00;1.65;853.09;0.00;0.00;0.62;;;;;24.40;1.00;;;;;;2279232;56;3771;-86
2023/08/31 12:30:40;358254.00;1.19;618.05;0.00;0.00;0.62;;;;;24.30;1.00;;;;;;2294805;56;1870;-86
2023/08/31 12:35:42;576889.00;1.92;994.33;67749.00;0.23;117.87;;;;;24.20;1.00;;;;;;2326756;56;2096;-87
2023/08/31 12:43:21;2195161.00;7.32;4033.06;110967.00;0.37;192.50;;;;;24.10;1.00;;;;;;2289796;56;3634;-87
2023/08/31 12:48:21;1729750.00;5.77;3083.38;128336.00;0.43;222.46;;;;;24.20;1.00;;;;;;2285092;55;3683;-87
2023/08/31 12:55:57;1550371.00;5.17;2738.26;32052.00;0.11;56.13;;;;;24.50;1.00;;;;;;2275611;40;3530;-88
2023/08/31 13:08:47;769986.00;2.57;1328.83;66805.00;0.22;116.24;;;;;24.70;1.00;;;;;;1363239;40;3139;-85
2023/08/31 13:13:52;479829.00;1.60;827.10;65082.00;0.22;113.26;;;;;24.70;1.00;;;;;;2336628;40;3486;-86
2023/08/31 13:23:57;425228.00;1.42;733.18;0.00;0.00;0.62;;;;;24.00;1.00;;;;;;2276524;56;1677;-87
2023/08/31 13:26:25;223159.00;0.74;385.78;0.00;0.00;0.62;;;;;24.00;1.00;;;;;;2290015;40;3599;-86
2023/08/31 13:28:52;284013.00;0.95;490.44;0.00;0.00;0.62;;;;;23.80;1.00;;;;;;2277612;55;3778;-87
2023/08/31 13:31:20;127479.00;0.42;220.98;0.00;0.00;0.62;;;;;24.10;1.00;;;;;;2273198;55;3786;-86
2023/08/31 13:36:19;1634083.00;5.45;2898.05;39941.00;0.13;69.79;;;;;24.50;1.00;;;;;;2363864;40;3786;-87
2023/08/31 13:41:26;1517573.00;5.06;2676.23;44058.00;0.15;76.91;;;;;25.10;1.00;;;;;;2263131;40;3483;-86
2023/08/31 13:46:26;1143522.00;3.81;1988.43;18845.00;0.06;33.27;;;;;24.90;1.00;;;;;;2300142;40;3452;-86
2023/08/31 13:48:53;177630.00;0.59;307.41;0.00;0.00;0.62;;;;;24.80;1.00;;;;;;2292538;40;3724;-87
2023/08/31 13:56:26;1590164.00;5.30;2813.96;97931.00;0.33;170.00;;;;;24.30;1.00;;;;;;1587833;41;3577;-89
2023/08/31 13:58:57;397419.00;1.32;685.37;0.00;0.00;0.62;;;;;24.60;1.00;;;;;;2312409;40;3738;-86
2023/08/31 14:01:25;194076.00;0.65;335.73;61040.00;0.20;106.27;;;;;24.80;1.00;;;;;;2304794;40;3744;-87
2023/08/31 14:03:52;376674.00;1.26;649.71;20719.00;0.07;36.52;;;;;25.10;1.00;;;;;;2268830;61;1734;-86
2023/08/31 14:06:21;554654.00;1.85;955.98;95733.00;0.32;166.21;;;;;25.20;1.00;;;;;;2268803;61;2014;-86
2023/08/31 14:08:50;229756.00;0.77;397.13;23834.00;0.08;41.91;;;;;25.20;1.00;;;;;;2268851;61;1660;-88
2023/08/31 14:11:18;414012.00;1.38;713.89;25608.00;0.09;44.98;;;;;24.90;1.00;;;;;;2268943;61;1376;-86
2023/08/31 14:16:19;1170822.00;3.90;2037.55;0.00;0.00;0.62;;;;;24.00;1.00;;;;;;2270230;61;1328;-86
2023/08/31 14:18:47;520727.00;1.74;897.52;66553.00;0.22;115.80;;;;;24.00;1.00;;;;;;2268753;61;1687;-89
2023/08/31 14:21:16;221228.00;0.74;382.46;0.00;0.00;0.62;;;;;24.10;1.00;;;;;;2271610;55;3769;-87
2023/08/31 14:23:45;196555.00;0.66;339.99;0.00;0.00;0.62;;;;;24.00;1.00;;;;;;2273657;55;3730;-87
2023/08/31 14:26:13;192960.00;0.64;333.80;0.00;0.00;0.62;;;;;24.00;1.00;;;;;;2303934;56;3765;-88
2023/08/31 14:28:40;258788.00;0.86;447.06;0.00;0.00;0.62;;;;;23.40;1.00;;;;;;2286224;40;3611;-85
2023/08/31 14:33:44;1774873.00;5.92;3171.85;60422.00;0.20;105.21;;;;;23.50;1.00;;;;;;2297960;40;3515;-88
2023/08/31 14:43:43;1246609.00;4.16;2174.72;0.00;0.00;0.62;;;;;24.60;1.00;;;;;;2275147;61;1386;-87
2023/08/31 14:53:56;2159993.00;7.20;3958.19;89482.00;0.30;155.41;;;;;24.10;1.00;;;;;;2293965;56;3625;-86
2023/08/31 14:56:27;510689.00;1.70;880.23;72193.00;0.24;125.55;;;;;24.10;1.00;;;;;;2404401;40;3769;-87
2023/08/31 15:01:31;736943.00;2.46;1271.36;85447.00;0.28;148.45;;;;;24.40;1.00;;;;;;2443524;40;2219;-86
2023/08/31 15:03:58;1414600.00;4.72;2483.43;127266.00;0.42;220.61;;;;;24.70;1.00;;;;;;2279499;56;3772;-87
2023/08/31 15:06:26;980696.00;3.27;1698.31;101218.00;0.34;175.67;;;;;24.40;1.00;;;;;;2295186;40;3497;-87
2023/08/31 15:08:55;679502.00;2.27;1171.71;69878.00;0.23;121.55;;;;;24.60;1.00;;;;;;2330917;40;3641;-86
2023/08/31 15:11:24;489130.00;1.63;843.11;48068.00;0.16;83.84;;;;;24.80;1.00;;;;;;2301212;40;3583;-87
2023/08/31 15:21:40;383976.00;1.28;662.26;0.00;0.00;0.62;;;;;24.80;1.00;;;;;;2454918;40;3568;31
2023/08/31 15:26:44;383404.00;1.28;661.28;0.00;0.00;0.62;;;;;25.00;1.00;;;;;;2271534;56;1934;-88
2023/08/31 15:31:48;204794.00;0.68;354.18;45094.00;0.15;78.70;;;;;24.90;1.00;;;;;;2310923;56;1948;-86
2023/08/31 15:36:51;245912.00;0.82;424.92;0.00;0.00;0.62;;;;;24.50;1.00;;;;;;2458029;40;2190;-87
2023/08/31 15:39:22;1285281.00;4.28;2245.19;79366.00;0.26;137.94;;;;;24.50;1.00;;;;;;2284296;55;3783;-86
2023/08/31 15:49:35;0.00;0.00;0.62;0.00;0.00;0.62;;;;;24.50;1.00;;;;;;2456340;40;1985;-88
2023/08/31 15:57:13;353883.00;1.18;610.54;0.00;0.00;0.62;;;;;24.50;1.00;;;;;;2350336;56;2148;-87
2023/08/31 15:59:42;393759.00;1.31;679.08;49154.00;0.16;85.72;;;;;24.40;1.00;;;;;;2318138;41;3605;-87
2023/08/31 16:04:43;1612399.00;5.37;2856.46;0.00;0.00;0.62;;;;;24.60;1.00;;;;;;1486684;41;3478;-86
2023/08/31 16:09:38;1236413.00;4.12;2156.20;0.00;0.00;0.62;;;;;24.80;1.00;;;;;;2267975;61;1354;-87
2023/08/31 16:12:11;266616.00;0.89;460.53;49492.00;0.16;86.31;;;;;24.50;1.00;;;;;;2272318;56;3723;-87
2023/08/31 16:17:16;377446.00;1.26;651.04;0.00;0.00;0.62;;;;;24.20;1.00;;;;;;2367427;41;2019;-87
2023/08/31 16:24:46;1499606.00;5.00;2642.38;0.00;0.00;0.62;;;;;24.10;1.00;;;;;;2285182;40;3587;-88
2023/08/31 16:27:13;706261.00;2.35;1218.10;25388.00;0.08;44.60;;;;;24.00;1.00;;;;;;2280706;56;3543;-86
2023/08/31 16:29:40;717247.00;2.39;1237.16;29299.00;0.10;51.37;;;;;24.00;1.00;;;;;;2296788;56;3773;-86
2023/08/31 16:34:44;790603.00;2.64;1364.74;68228.00;0.23;118.70;;;;;24.00;1.00;;;;;;1844870;41;3219;-87
2023/08/31 16:37:12;490366.00;1.63;845.24;79086.00;0.26;137.46;;;;;23.80;1.00;;;;;;2293705;41;3634;-88
2023/08/31 16:42:13;2087842.00;6.96;3806.28;76841.00;0.26;133.58;;;;;24.00;1.00;;;;;;2271782;56;3645;-86
2023/08/31 16:49:49;2049798.00;6.83;3727.08;124838.00;0.42;216.43;;;;;24.30;1.00;;;;;;1587048;55;3582;-88
2023/08/31 16:52:19;1271052.00;4.24;2219.22;93413.00;0.31;162.20;;;;;24.30;1.00;;;;;;2406105;40;3619;-86
2023/08/31 16:54:48;1137452.00;3.79;1977.53;132508.00;0.44;229.65;;;;;24.40;1.00;;;;;;2286731;41;3754;-88
2023/08/31 16:57:18;829988.00;2.77;1433.47;3038.00;0.01;5.89;;;;;24.20;1.00;;;;;;2273839;41;3607;-84
2023/08/31 16:59:48;1416054.00;4.72;2486.13;131399.00;0.44;227.74;;;;;24.00;1.00;;;;;;2290375;40;3813;-85
2023/08/31 17:04:45;1749021.00;5.83;3121.07;37195.00;0.12;65.04;;;;;24.00;1.00;;;;;;2274260;56;3639;-85
2023/08/31 17:09:43;1938447.00;6.46;3498.69;0.00;0.00;0.62;;;;;24.30;1.00;;;;;;815738;56;3577;-87
2023/08/31 17:12:10;613619.00;2.05;1057.74;81349.00;0.27;141.37;;;;;24.20;1.00;;;;;;2290799;40;3672;-86
2023/08/31 17:22:11;1208317.00;4.03;2105.26;30663.00;0.10;53.73;;;;;24.20;1.00;;;;;;2343083;40;3523;-90
2023/08/31 17:24:39;317162.00;1.06;547.42;54580.00;0.18;95.11;;;;;24.00;1.00;;;;;;2267679;40;3607;-87
2023/08/31 17:29:38;1585990.00;5.29;2805.99;29416.00;0.10;51.57;;;;;23.60;1.00;;;;;;2304080;40;3663;-85
2023/08/31 17:32:07;717725.00;2.39;1237.99;52427.00;0.17;91.38;;;;;23.60;1.00;;;;;;2368257;55;3744;-87
2023/08/31 17:34:34;324153.00;1.08;559.44;0.00;0.00;0.62;;;;;23.50;1.00;;;;;;2289453;55;3808;-88
2023/08/31 17:44:47;1496891.00;4.99;2637.27;13560.00;0.05;24.12;;;;;23.70;1.00;;;;;;2319963;55;3568;-88
2023/08/31 17:47:20;604687.00;2.02;1042.31;0.00;0.00;0.62;;;;;23.60;1.00;;;;;;2364657;41;3594;-87
2023/08/31 18:05:16;767301.00;2.56;1324.15;4776.00;0.02;8.90;;;;;23.90;1.00;;;;;;2268281;55;3688;-87
2023/08/31 18:07:43;130694.00;0.44;226.53;0.00;0.00;0.62;;;;;23.80;1.00;;;;;;2265105;61;1143;-88
2023/08/31 18:10:11;244047.00;0.81;421.71;38657.00;0.13;67.56;;;;;23.90;1.00;;;;;;2264801;61;1702;-88
2023/08/31 18:12:41;228713.00;0.76;395.33;3780.00;0.01;7.17;;;;;23.70;1.00;;;;;;2267630;40;3690;-86
2023/08/31 18:15:09;662410.00;2.21;1142.11;46258.00;0.15;80.71;;;;;23.70;1.00;;;;;;2276366;56;3746;-86
2023/08/31 18:17:36;251375.00;0.84;434.32;0.00;0.00;0.62;;;;;23.70;1.00;;;;;;2264868;61;1522;-86
2023/08/31 18:20:03;150429.00;0.50;260.55;0.00;0.00;0.62;;;;;23.50;1.00;;;;;;2266998;55;3772;-86
2023/08/31 18:22:34;286863.00;0.96;495.34;0.00;0.00;0.62;;;;;23.60;1.00;;;;;;2264923;61;1445;-87
2023/08/31 18:25:03;145428.00;0.48;251.93;0.00;0.00;0.62;;;;;23.50;1.00;;;;;;2264930;61;1030;-87
2023/08/31 18:27:30;79336.00;0.26;137.89;0.00;0.00;0.62;;;;;23.50;1.00;;;;;;2264789;61;2003;-86
2023/08/31 18:29:56;242168.00;0.81;418.48;0.00;0.00;0.62;;;;;23.50;1.00;;;;;;2264691;61;1179;-87
2023/08/31 18:32:33;243511.00;0.81;420.79;0.00;0.00;0.62;;;;;23.60;1.00;;;;;;2264840;61;1607;-85
2023/08/31 18:35:01;184905.00;0.62;319.94;0.00;0.00;0.62;;;;;23.70;1.00;;;;;;2264756;61;1650;-86
2023/08/31 18:37:27;124133.00;0.41;215.21;0.00;0.00;0.62;;;;;23.50;1.00;;;;;;2264766;61;956;-87
2023/08/31 18:39:56;170503.00;0.57;295.13;0.00;0.00;0.62;;;;;23.40;1.00;;;;;;2266955;55;3775;-87
2023/08/31 18:42:24;424204.00;1.41;731.42;0.00;0.00;0.62;;;;;23.30;1.00;;;;;;2264591;61;1325;-87
2023/08/31 18:44:51;181381.00;0.60;313.87;0.00;0.00;0.62;;;;;23.30;1.00;;;;;;2264842;61;1633;-88
2023/08/31 18:47:18;169540.00;0.57;293.47;0.00;0.00;0.62;;;;;23.30;1.00;;;;;;2264782;61;1919;-86
2023/08/31 18:49:45;337720.00;1.13;582.75;60466.00;0.20;105.28;;;;;23.40;1.00;;;;;;2267748;40;3639;-87
2023/08/31 18:52:12;410470.00;1.37;707.81;0.00;0.00;0.62;;;;;23.50;1.00;;;;;;2277275;41;3817;-87
2023/08/31 18:54:39;419063.00;1.40;722.58;0.00;0.00;0.62;;;;;23.30;1.00;;;;;;2266990;40;3670;-86
2023/08/31 18:59:37;1202767.00;4.01;2095.22;0.00;0.00;0.62;;;;;23.20;1.00;;;;;;2275334;55;3651;-87
2023/08/31 19:02:06;850292.00;2.83;1468.98;105877.00;0.35;183.72;;;;;23.00;1.00;;;;;;2274771;40;3658;-87
2023/08/31 19:04:32;240488.00;0.80;415.59;0.00;0.00;0.62;;;;;22.90;1.00;;;;;;2264397;61;1631;-87
2023/08/31 19:06:59;316072.00;1.05;545.55;0.00;0.00;0.62;;;;;23.10;1.00;;;;;;2278939;40;3446;-89
2023/08/31 19:09:29;274733.00;0.92;474.48;0.00;0.00;0.62;;;;;23.10;1.00;;;;;;2284722;40;3555;-87
2023/08/31 19:11:56;29354.00;0.10;51.46;0.00;0.00;0.62;;;;;23.00;1.00;;;;;;2269195;55;3816;-86
2023/08/31 19:14:23;345773.00;1.15;596.60;38054.00;0.13;66.52;;;;;23.00;1.00;;;;;;2267308;40;3760;-88
2023/08/31 19:16:52;399103.00;1.33;688.26;0.00;0.00;0.62;;;;;23.10;1.00;;;;;;2272356;41;3656;-88
2023/08/31 19:26:47;1070242.00;3.57;1857.29;0.00;0.00;0.62;;;;;22.70;1.00;;;;;;2266381;61;1976;-87
2023/08/31 19:29:14;210525.00;0.70;364.04;0.00;0.00;0.62;;;;;22.80;1.00;;;;;;2264451;61;1001;-87
2023/08/31 19:36:49;1383997.00;4.61;2426.68;0.00;0.00;0.62;;;;;22.50;1.00;;;;;;1791795;41;3461;-87
2023/08/31 19:39:16;277786.00;0.93;479.73;0.00;0.00;0.62;;;;;22.60;1.00;;;;;;2272129;41;3604;-87
2023/08/31 19:41:43;860763.00;2.87;1487.31;19434.00;0.06;34.29;;;;;22.80;1.00;;;;;;2284644;41;3587;-87
2023/08/31 19:44:10;240609.00;0.80;415.80;45024.00;0.15;78.58;;;;;22.80;1.00;;;;;;2265878;40;3556;-89
2023/08/31 19:46:37;528384.00;1.76;910.71;0.00;0.00;0.62;;;;;22.80;1.00;;;;;;2260047;61;2018;-89
2023/08/31 19:49:05;1018719.00;3.40;1765.65;114495.00;0.38;198.59;;;;;22.60;1.00;;;;;;2273871;40;3754;-88
2023/08/31 19:51:35;1287089.00;4.29;2248.50;91243.00;0.30;158.45;;;;;22.30;1.00;;;;;;2264046;61;1395;-87
2023/08/31 19:56:40;1585868.00;5.29;2805.76;222023.00;0.74;383.82;;;;;22.30;1.00;;;;;;2012498;40;3610;-87
2023/08/31 20:01:42;1750440.00;5.83;3123.85;171923.00;0.57;297.58;;;;;22.40;1.00;;;;;;2296415;40;3505;-88
2023/08/31 20:04:09;345833.00;1.15;596.70;0.00;0.00;0.62;;;;;22.50;1.00;;;;;;2266861;40;3579;-87
2023/08/31 20:06:40;267190.00;0.89;461.51;3038.00;0.01;5.89;;;;;22.40;1.00;;;;;;2263905;61;1932;-87
2023/08/31 20:09:09;460429.00;1.53;793.72;10655.00;0.04;19.08;;;;;22.50;1.00;;;;;;2280073;41;3762;-88
2023/08/31 20:11:38;159224.00;0.53;275.70;0.00;0.00;0.62;;;;;22.50;1.00;;;;;;2263992;61;1487;-89
2023/08/31 20:14:05;511511.00;1.71;881.64;55225.00;0.18;96.22;;;;;22.70;1.00;;;;;;2272934;55;3754;-89
2023/08/31 20:16:32;556588.00;1.86;959.32;31443.00;0.10;55.08;;;;;22.60;1.00;;;;;;2264091;61;1731;-87
2023/08/31 20:19:00;273441.00;0.91;472.26;111738.00;0.37;193.83;;;;;22.50;1.00;;;;;;2269671;40;3594;-87
2023/08/31 20:23:56;1487392.00;4.96;2619.42;13759.00;0.05;24.46;;;;;22.30;1.00;;;;;;2257558;61;1646;-87
2023/08/31 20:26:23;742539.00;2.48;1281.09;8994.00;0.03;16.21;;;;;22.30;1.00;;;;;;2275050;56;3772;-87
2023/08/31 20:28:52;117460768.00;391.54;65645908.00;32203.00;0.11;56.40;;;;;22.10;1.00;;;;;;2263904;61;1716;-87
2023/08/31 20:31:21;202798.00;0.68;350.74;33961.00;0.11;59.44;;;;;22.10;1.00;;;;;;2264034;61;1300;-88
2023/08/31 20:33:48;257297.00;0.86;444.50;34646.00;0.12;60.62;;;;;22.20;1.00;;;;;;2264053;61;997;-88
2023/08/31 20:36:15;245299.00;0.82;423.87;0.00;0.00;0.62;;;;;22.10;1.00;;;;;;2263890;61;1521;-88